Time;durP1;ratioP1;P1;durP2;ratioP2;P2;SDS_P1;SDS_P2;PMS_P1;PMS_P2;Temp;Humidity;BMP_temperature;BMP_pressure;BME280_temperature;BME280_humidity;BME280_pressure;Samples;Min_cycle;Max_cycle;Signal;HPM_P1;HPM_P2
2022/10/02 00:01:30;;;;;;;0.23;0.23;;;17.20;79.40;17.40;96677.00;;;;5051705;28;20315;-86
2022/10/02 00:03:58;;;;;;;0.27;0.27;;;17.20;79.40;17.40;96682.00;;;;5051478;28;20271;-85
2022/10/02 00:06:41;;;;;;;0.77;0.47;;;17.20;79.50;17.40;96682.00;;;;5047760;28;20724;-86
2022/10/02 00:09:19;;;;;;;0.53;0.40;;;17.20;79.50;17.40;96687.00;;;;5049897;28;20196;-85
2022/10/02 00:11:53;;;;;;;0.83;0.30;;;17.20;79.50;17.40;96693.00;;;;5048759;28;20279;-86
2022/10/02 00:14:25;;;;;;;0.87;0.10;;;17.20;79.50;17.40;96694.00;;;;5046329;28;20223;-85
2022/10/02 00:16:57;;;;;;;1.93;0.50;;;17.20;79.50;17.30;96697.00;;;;5039830;28;20301;-86
2022/10/02 00:19:25;;;;;;;1.23;0.33;;;17.20;79.60;17.30;96698.00;;;;5049844;28;20673;-85
2022/10/02 00:22:29;;;;;;;0.97;0.33;;;17.20;79.60;17.30;96693.00;;;;5051471;28;20205;-85
2022/10/02 00:25:08;;;;;;;0.30;0.30;;;17.20;79.60;17.40;96703.00;;;;5049724;28;20250;-86
2022/10/02 00:27:50;;;;;;;0.13;0.13;;;17.20;80.40;17.40;96703.00;;;;5049921;28;20211;-86
2022/10/02 00:30:18;;;;;;;0.80;0.33;;;17.20;79.70;17.40;96722.00;;;;5049376;28;20189;-85
2022/10/02 00:33:03;;;;;;;0.50;0.30;;;17.20;79.80;17.40;96717.00;;;;5050248;28;20231;-87
2022/10/02 00:36:09;;;;;;;0.20;0.20;;;17.20;79.80;17.40;96728.00;;;;5049944;28;20231;-85
2022/10/02 00:38:55;;;;;;;0.50;0.30;;;17.20;79.50;17.40;96728.00;;;;5044359;28;20201;-85
2022/10/02 00:41:58;;;;;;;0.63;0.20;;;17.20;79.60;17.40;96731.00;;;;5050913;28;20192;-86
2022/10/02 00:44:55;;;;;;;0.20;0.20;;;17.20;79.50;17.30;96735.00;;;;5048004;28;20214;-85
2022/10/02 00:47:39;;;;;;;1.20;0.40;;;17.20;79.70;17.30;96742.00;;;;5049701;28;20279;-85
2022/10/02 00:50:30;;;;;;;1.20;0.33;;;17.10;79.80;17.30;96758.00;;;;5043226;28;20200;-86
2022/10/02 00:53:14;;;;;;;1.40;0.27;;;17.10;80.00;17.30;96751.00;;;;5034411;28;20311;-86
2022/10/02 00:56:02;;;;;;;0.50;0.23;;;17.10;80.20;17.20;96751.00;;;;5049608;28;20301;-85
2022/10/02 00:58:58;;;;;;;0.73;0.30;;;17.00;80.40;17.20;96758.00;;;;5051192;28;20207;-85
2022/10/02 01:01:40;;;;;;;1.13;0.67;;;17.10;80.50;17.20;96768.00;;;;5053987;28;20283;-85
2022/10/02 01:04:14;;;;;;;1.53;0.37;;;17.00;80.50;17.20;96767.00;;;;5053563;28;20291;-85
2022/10/02 01:06:44;;;;;;;0.70;0.33;;;17.00;80.60;17.10;96748.00;;;;5052938;28;20334;-85
2022/10/02 01:09:12;;;;;;;0.63;0.40;;;17.00;80.80;17.10;96740.00;;;;5051427;28;20280;-85
2022/10/02 01:11:39;;;;;;;0.97;0.50;;;16.90;81.00;17.10;96744.00;;;;5053622;28;20232;-85
2022/10/02 01:14:07;;;;;;;0.53;0.30;;;16.90;81.10;17.10;96756.00;;;;5053396;28;20231;-85
2022/10/02 01:16:34;;;;;;;0.47;0.20;;;16.90;81.20;17.10;96753.00;;;;5052329;28;20702;-85
2022/10/02 01:19:02;;;;;;;0.47;0.27;;;16.90;81.40;17.10;96757.00;;;;5048555;28;20311;-85
2022/10/02 01:21:40;;;;;;;0.43;0.43;;;16.90;81.50;17.10;96757.00;;;;5053857;28;20189;-85
2022/10/02 01:24:21;;;;;;;0.50;0.43;;;16.90;81.70;17.10;96773.00;;;;5051713;28;20205;-85
2022/10/02 01:26:50;;;;;;;0.70;0.20;;;16.90;82.50;17.10;96770.00;;;;5053315;28;20744;-85
2022/10/02 01:29:17;;;;;;;0.50;0.20;;;16.80;81.70;17.10;96773.00;;;;5051664;28;20566;-85
2022/10/02 01:31:44;;;;;;;0.50;0.50;;;16.80;81.80;17.10;96767.00;;;;5054220;28;20582;-85
2022/10/02 01:34:12;;;;;;;1.83;0.40;;;16.80;81.70;17.10;96764.00;;;;5052435;28;20246;-85
2022/10/02 01:36:39;;;;;;;0.60;0.50;;;16.80;81.70;17.10;96752.00;;;;5051875;28;20220;-85
2022/10/02 01:39:06;;;;;;;1.00;0.40;;;16.80;81.70;17.00;96734.00;;;;5053495;28;20593;-85
2022/10/02 01:41:41;;;;;;;1.07;0.40;;;16.80;82.50;17.00;96729.00;;;;5052819;28;20239;-85
2022/10/02 01:44:11;;;;;;;1.07;0.30;;;16.80;81.90;17.10;96733.00;;;;5052484;28;20606;-85
2022/10/02 01:46:50;;;;;;;0.80;0.40;;;16.80;82.00;17.10;96728.00;;;;5052166;28;20208;-85
2022/10/02 01:49:59;;;;;;;1.37;0.30;;;16.80;81.90;17.00;96734.00;;;;5051522;28;20196;-85
2022/10/02 01:52:46;;;;;;;1.00;0.50;;;16.80;81.90;17.00;96732.00;;;;5051912;28;20196;-85
2022/10/02 01:55:39;;;;;;;0.53;0.40;;;16.80;81.70;17.00;96740.00;;;;5050498;28;20220;-85
2022/10/02 01:58:24;;;;;;;0.70;0.40;;;16.80;81.70;17.00;96739.00;;;;5047201;28;20660;-85
2022/10/02 02:01:08;;;;;;;0.87;0.30;;;16.80;81.70;17.00;96731.00;;;;5052785;28;20193;-84
2022/10/02 02:03:47;;;;;;;0.37;0.27;;;16.80;81.70;17.00;96745.00;;;;5054196;28;20196;-85
2022/10/02 02:06:26;;;;;;;0.43;0.43;;;16.80;81.70;17.00;96751.00;;;;5047947;28;20232;-85
2022/10/02 02:09:08;;;;;;;0.80;0.40;;;16.80;81.60;17.00;96765.00;;;;5044947;28;20197;-85
2022/10/02 02:11:42;;;;;;;1.73;0.70;;;16.80;81.70;17.10;96761.00;;;;5052967;28;20193;-85
2022/10/02 02:14:16;;;;;;;0.40;0.40;;;16.80;81.80;17.10;96767.00;;;;5053026;28;20661;-85
2022/10/02 02:16:49;;;;;;;1.03;0.30;;;16.80;81.70;17.10;96765.00;;;;5053600;28;20208;-85
2022/10/02 02:19:24;;;;;;;1.50;0.30;;;16.80;82.40;17.10;96758.00;;;;5063191;28;20228;-85
2022/10/02 02:22:00;;;;;;;0.73;0.40;;;16.80;81.70;17.10;96753.00;;;;5041431;28;20682;-85
2022/10/02 02:24:36;;;;;;;0.70;0.40;;;16.80;81.80;17.10;96762.00;;;;5052382;28;20546;-85
2022/10/02 02:27:05;;;;;;;0.43;0.30;;;16.80;81.90;17.10;96758.00;;;;5048949;28;20212;-85
2022/10/02 02:29:37;;;;;;;0.80;0.37;;;16.80;81.70;17.10;96751.00;;;;5053014;28;20215;-85
2022/10/02 02:32:13;;;;;;;0.93;0.30;;;16.80;81.70;17.10;96756.00;;;;5052082;28;20203;-85
2022/10/02 02:34:48;;;;;;;1.47;0.77;;;16.80;81.70;17.10;96752.00;;;;5051944;28;20224;-85
2022/10/02 02:37:21;;;;;;;0.30;0.30;;;16.80;81.70;17.00;96745.00;;;;5051107;28;20206;-85
2022/10/02 02:39:53;;;;;;;0.30;0.30;;;16.80;82.50;17.10;96756.00;;;;5051873;28;20296;-85
2022/10/02 02:42:25;;;;;;;1.20;0.30;;;16.80;81.80;17.10;96752.00;;;;5051536;28;20284;-85
2022/10/02 02:45:00;;;;;;;0.50;0.40;;;16.80;81.90;17.10;96746.00;;;;5034509;28;20239;-85
2022/10/02 02:47:36;;;;;;;0.40;0.30;;;16.80;81.90;17.10;96744.00;;;;5050498;28;20287;-85
2022/10/02 02:50:10;;;;;;;0.30;0.30;;;16.80;81.70;17.10;96753.00;;;;5051749;28;20196;-85
2022/10/02 02:52:45;;;;;;;0.47;0.30;;;16.80;81.80;17.10;96753.00;;;;5045036;28;20292;-85
2022/10/02 02:55:19;;;;;;;0.67;0.27;;;16.90;81.90;17.20;96756.00;;;;5050591;28;20254;-85
2022/10/02 02:57:53;;;;;;;0.40;0.37;;;16.90;81.80;17.20;96745.00;;;;5051207;28;20208;-85
2022/10/02 03:00:21;;;;;;;0.67;0.40;;;16.90;81.90;17.20;96753.00;;;;5050385;28;20658;-85
2022/10/02 03:02:53;;;;;;;0.97;0.50;;;16.90;81.80;17.20;96765.00;;;;5051856;28;20224;-85
2022/10/02 03:05:29;;;;;;;0.40;0.40;;;16.90;81.80;17.20;96763.00;;;;5051122;28;20369;-85
2022/10/02 03:08:02;;;;;;;0.63;0.30;;;16.90;81.90;17.20;96759.00;;;;5049711;28;20207;-85
2022/10/02 03:10:46;;;;;;;0.50;0.33;;;16.90;81.80;17.20;96765.00;;;;5045862;28;20223;-85
2022/10/02 03:13:31;;;;;;;0.40;0.30;;;16.90;81.70;17.20;96767.00;;;;5050885;28;20236;-85
2022/10/02 03:16:18;;;;;;;1.07;0.30;;;16.90;81.70;17.20;96754.00;;;;5044793;28;20470;-85
2022/10/02 03:19:08;;;;;;;2.40;0.53;;;16.90;81.50;17.20;96759.00;;;;5049069;28;20226;-85
2022/10/02 03:21:47;;;;;;;4.00;0.60;;;17.00;81.50;17.20;96763.00;;;;5048115;28;20380;-85
2022/10/02 03:24:23;;;;;;;1.20;0.40;;;17.00;81.50;17.20;96770.00;;;;5049098;28;20563;-85
2022/10/02 03:27:00;;;;;;;0.30;0.30;;;16.90;81.40;17.20;96766.00;;;;5049806;28;20315;-85
2022/10/02 03:29:35;;;;;;;0.20;0.20;;;16.90;81.40;17.20;96771.00;;;;5048564;28;20279;-85
2022/10/02 03:32:06;;;;;;;0.83;0.40;;;17.00;81.50;17.20;96775.00;;;;5050056;28;20278;-85
2022/10/02 03:34:36;;;;;;;0.87;0.60;;;17.00;81.60;17.20;96767.00;;;;5050741;28;20239;-85
2022/10/02 03:37:04;;;;;;;1.03;0.53;;;17.00;81.60;17.20;96759.00;;;;5048728;28;20224;-84
2022/10/02 03:39:32;;;;;;;0.70;0.50;;;16.90;81.40;17.20;96743.00;;;;5051324;28;20287;-85
2022/10/02 03:42:00;;;;;;;3.43;0.40;;;17.00;81.50;17.20;96739.00;;;;5050107;28;20200;-85
2022/10/02 03:44:27;;;;;;;0.90;0.33;;;17.00;81.50;17.30;96734.00;;;;5046024;28;20697;-85
2022/10/02 03:46:54;;;;;;;0.33;0.30;;;17.00;81.50;17.30;96736.00;;;;5050343;28;20203;-85
2022/10/02 03:49:21;;;;;;;0.80;0.30;;;17.00;81.50;17.30;96740.00;;;;5051820;28;20669;-85
2022/10/02 03:51:50;;;;;;;0.53;0.20;;;17.00;81.40;17.30;96733.00;;;;5050397;28;20223;-85
2022/10/02 03:54:20;;;;;;;1.90;0.27;;;17.00;81.40;17.30;96729.00;;;;5051237;28;20689;-85
2022/10/02 03:56:56;;;;;;;1.80;0.30;;;17.00;81.50;17.30;96734.00;;;;5050159;28;20216;-85
2022/10/02 03:59:42;;;;;;;0.57;0.30;;;16.90;81.40;17.30;96740.00;;;;5050523;28;20278;-85
2022/10/02 04:02:23;;;;;;;0.87;0.30;;;17.00;81.50;17.30;96740.00;;;;5046713;28;20288;-85
2022/10/02 04:05:00;;;;;;;1.87;0.47;;;17.00;81.40;17.30;96736.00;;;;5048402;28;20633;-85
2022/10/02 04:07:37;;;;;;;0.60;0.30;;;17.00;81.50;17.30;96740.00;;;;5051120;28;20274;-85
2022/10/02 04:10:27;;;;;;;0.33;0.30;;;17.10;81.40;17.30;96746.00;;;;5043597;28;20291;-85
2022/10/02 04:13:02;;;;;;;0.97;0.50;;;17.10;81.40;17.40;96750.00;;;;5051162;28;20633;-85
2022/10/02 04:15:43;;;;;;;0.93;0.47;;;17.00;81.50;17.30;96763.00;;;;5048556;28;20747;-85
2022/10/02 04:18:21;;;;;;;0.60;0.50;;;17.10;81.50;17.30;96763.00;;;;5051075;28;20202;-85
2022/10/02 04:20:55;;;;;;;0.83;0.43;;;17.10;81.40;17.40;96762.00;;;;5050285;28;20557;-85
2022/10/02 04:23:31;;;;;;;1.00;0.37;;;17.10;81.50;17.40;96749.00;;;;5051138;28;20666;-85
2022/10/02 04:26:06;;;;;;;1.50;0.57;;;17.10;81.50;17.40;96752.00;;;;5044942;28;20307;-85
2022/10/02 04:28:40;;;;;;;0.70;0.50;;;17.10;81.40;17.40;96750.00;;;;5050822;28;20196;-85
2022/10/02 04:31:13;;;;;;;1.30;0.40;;;17.10;81.40;17.40;96747.00;;;;5050160;28;20559;-85
2022/10/02 04:33:40;;;;;;;1.07;0.30;;;17.10;81.40;17.40;96751.00;;;;5052978;28;20250;-85
2022/10/02 04:36:29;;;;;;;7.60;0.67;;;17.10;82.20;17.40;96747.00;;;;5053268;28;20240;-85
2022/10/02 04:39:29;;;;;;;1.37;0.50;;;17.10;81.50;17.40;96753.00;;;;5046939;28;20200;-85
2022/10/02 04:42:18;;;;;;;0.70;0.30;;;17.10;81.60;17.40;96752.00;;;;5039032;28;20723;-85
2022/10/02 04:45:07;;;;;;;0.50;0.50;;;17.10;81.40;17.40;96758.00;;;;5053439;28;20215;-85
2022/10/02 04:48:03;;;;;;;0.30;0.30;;;17.20;81.50;17.40;96748.00;;;;5051956;28;20356;-85
2022/10/02 04:50:48;;;;;;;1.60;0.50;;;17.10;81.40;17.40;96756.00;;;;5053271;28;20223;-85
2022/10/02 04:53:45;;;;;;;2.30;0.60;;;17.10;81.40;17.40;96765.00;;;;5051790;28;20197;-84
2022/10/02 04:56:48;;;;;;;1.00;0.40;;;17.20;81.60;17.40;96759.00;;;;5051203;28;20732;-85
2022/10/02 04:59:41;;;;;;;0.60;0.40;;;17.20;81.60;17.40;96763.00;;;;5052553;28;20203;-84
2022/10/02 05:02:32;;;;;;;0.60;0.30;;;17.20;81.70;17.50;96751.00;;;;5047525;28;20196;-85
2022/10/02 05:05:17;;;;;;;1.83;0.30;;;17.20;81.80;17.50;96755.00;;;;5053475;28;20216;-84
2022/10/02 05:08:11;;;;;;;2.17;0.50;;;17.20;81.80;17.40;96763.00;;;;5054347;28;20214;-85
2022/10/02 05:10:59;;;;;;;3.17;1.07;;;17.20;82.00;17.40;96761.00;;;;5054385;28;20280;-85
2022/10/02 05:13:53;;;;;;;2.70;0.50;;;17.20;82.00;17.40;96768.00;;;;5069327;28;20219;-86
2022/10/02 05:16:39;;;;;;;1.43;0.23;;;17.20;82.00;17.40;96773.00;;;;5069268;28;20231;-85
2022/10/02 05:19:49;;;;;;;0.63;0.40;;;17.20;82.10;17.40;96772.00;;;;5058275;28;20204;-85
2022/10/02 05:23:06;;;;;;;0.83;0.33;;;17.20;83.00;17.30;96774.00;;;;5039150;28;20201;-84
2022/10/02 05:25:56;;;;;;;0.70;0.50;;;17.10;82.60;17.30;96777.00;;;;5051487;28;20701;-84
2022/10/02 05:28:53;;;;;;;0.77;0.33;;;17.10;82.70;17.30;96774.00;;;;5052033;28;20684;-84
2022/10/02 05:31:36;;;;;;;1.17;0.60;;;17.10;83.00;17.30;96762.00;;;;5054541;28;20709;-84
2022/10/02 05:34:37;;;;;;;0.50;0.50;;;17.10;83.00;17.30;96765.00;;;;5054697;28;20192;-84
2022/10/02 05:37:25;;;;;;;0.53;0.40;;;17.10;83.20;17.30;96765.00;;;;5055393;28;20270;-84
2022/10/02 05:40:05;;;;;;;1.27;0.70;;;17.10;83.40;17.30;96765.00;;;;5054488;28;20200;-84
2022/10/02 05:42:40;;;;;;;2.17;0.70;;;17.10;83.50;17.30;96760.00;;;;5057174;28;20287;-84
2022/10/02 05:45:25;;;;;;;0.97;0.73;;;17.10;83.60;17.40;96767.00;;;;5055419;28;20697;-84
2022/10/02 05:48:02;;;;;;;1.53;0.87;;;17.10;83.80;17.40;96770.00;;;;5054344;28;20212;-85
2022/10/02 05:50:36;;;;;;;2.40;0.87;;;17.10;83.70;17.40;96770.00;;;;5055699;28;20227;-84
2022/10/02 05:53:13;;;;;;;1.70;0.80;;;17.10;83.80;17.40;96770.00;;;;5055281;28;20196;-84
2022/10/02 05:55:49;;;;;;;0.70;0.53;;;17.10;83.80;17.40;96775.00;;;;5053507;28;20224;-83
2022/10/02 05:58:24;;;;;;;0.93;0.83;;;17.10;83.90;17.40;96782.00;;;;5052161;28;20707;-83
2022/10/02 06:01:04;;;;;;;0.70;0.60;;;17.10;84.10;17.50;96782.00;;;;5035102;28;20202;-84
2022/10/02 06:03:42;;;;;;;0.50;0.50;;;17.10;84.20;17.50;96783.00;;;;5038056;28;20280;-85
2022/10/02 06:06:16;;;;;;;2.33;0.70;;;17.10;84.30;17.50;96780.00;;;;5052109;28;20224;-85
2022/10/02 06:08:51;;;;;;;0.87;0.60;;;17.10;84.30;17.50;96770.00;;;;5051477;28;20668;-85
2022/10/02 06:11:27;;;;;;;1.07;0.70;;;17.20;84.20;17.50;96776.00;;;;5053311;28;20181;-85
2022/10/02 06:14:00;;;;;;;0.90;0.80;;;17.20;84.20;17.60;96767.00;;;;5052677;28;20623;-85
2022/10/02 06:16:37;;;;;;;1.57;0.80;;;17.20;84.20;17.60;96764.00;;;;5043935;28;20311;-86
2022/10/02 06:19:14;;;;;;;0.97;0.60;;;17.20;84.10;17.60;96763.00;;;;5051753;28;20279;-84
2022/10/02 06:21:50;;;;;;;1.97;1.17;;;17.20;84.10;17.60;96751.00;;;;5052688;28;20619;-86
2022/10/02 06:24:24;;;;;;;2.47;1.47;;;17.20;83.90;17.60;96764.00;;;;5051778;28;20195;-85
2022/10/02 06:27:02;;;;;;;2.37;1.40;;;17.20;83.80;17.50;96773.00;;;;5052246;28;20689;-86
2022/10/02 06:29:39;;;;;;;3.30;2.17;;;17.20;83.80;17.50;96770.00;;;;5050682;28;20204;-85
2022/10/02 06:32:22;;;;;;;2.30;1.23;;;17.20;83.70;17.50;96761.00;;;;5040333;28;20292;-84
2022/10/02 06:34:50;;;;;;;1.33;1.07;;;17.20;83.70;17.50;96774.00;;;;5050747;28;20306;-85
2022/10/02 06:37:55;;;;;;;2.87;1.20;;;17.20;83.70;17.50;96771.00;;;;5052053;28;20682;-86
2022/10/02 06:40:49;;;;;;;1.37;1.00;;;17.20;83.50;17.50;96777.00;;;;5042144;28;20200;-85
2022/10/02 06:43:39;;;;;;;5.57;1.03;;;17.20;83.50;17.50;96773.00;;;;5052090;28;20204;-85
2022/10/02 06:46:23;;;;;;;1.10;1.00;;;17.20;83.60;17.60;96784.00;;;;5033927;28;20682;-85
2022/10/02 06:49:01;;;;;;;1.37;0.73;;;17.20;83.60;17.60;96783.00;;;;5033121;28;20622;-85
2022/10/02 06:51:48;;;;;;;1.37;1.10;;;17.20;83.70;17.60;96785.00;;;;5050614;28;20253;-85
2022/10/02 06:54:46;;;;;;;1.93;1.10;;;17.30;83.80;17.60;96784.00;;;;5052790;28;20192;-85
2022/10/02 06:57:35;;;;;;;1.83;1.33;;;17.30;83.70;17.60;96777.00;;;;5049397;28;20751;-84
2022/10/02 07:00:11;;;;;;;1.87;1.30;;;17.30;83.70;17.60;96776.00;;;;5052323;28;20658;-85
2022/10/02 07:03:08;;;;;;;0.90;0.90;;;17.20;83.60;17.60;96779.00;;;;5046530;28;20204;-85
2022/10/02 07:06:00;;;;;;;1.23;1.13;;;17.20;83.70;17.60;96770.00;;;;5048116;28;20220;-85
2022/10/02 07:08:47;;;;;;;1.53;1.30;;;17.30;83.90;17.70;96783.00;;;;5041384;28;20236;-85
2022/10/02 07:11:26;;;;;;;2.73;1.10;;;17.30;83.80;17.70;96782.00;;;;5051594;28;20196;-86
2022/10/02 07:14:16;;;;;;;1.13;0.90;;;17.30;83.90;17.70;96792.00;;;;5050156;28;20681;-87
2022/10/02 07:17:28;;;;;;;1.13;0.83;;;17.30;83.80;17.70;96792.00;;;;5050214;28;20225;-87
2022/10/02 07:20:41;;;;;;;1.43;1.00;;;17.30;83.60;17.70;96803.00;;;;5049941;28;20208;-86
2022/10/02 07:23:53;;;;;;;1.83;1.40;;;17.30;83.40;17.70;96798.00;;;;5042901;28;20201;-86
2022/10/02 07:26:44;;;;;;;2.30;2.10;;;17.40;83.50;17.80;96797.00;;;;5031498;28;20311;-85
2022/10/02 07:29:35;;;;;;;3.47;1.80;;;17.40;83.50;17.80;96790.00;;;;5046648;28;20292;-86
2022/10/02 07:32:35;;;;;;;3.50;1.50;;;17.40;83.40;17.80;96790.00;;;;5049634;28;20196;-85
2022/10/02 07:35:25;;;;;;;2.83;1.30;;;17.40;83.60;17.90;96793.00;;;;5045512;28;20252;-85
2022/10/02 07:38:20;;;;;;;2.07;1.10;;;17.40;83.60;17.90;96801.00;;;;5050250;28;20294;-84
2022/10/02 07:41:14;;;;;;;1.57;1.10;;;17.50;83.80;17.90;96803.00;;;;5044421;28;20262;-85
2022/10/02 07:43:55;;;;;;;2.83;1.23;;;17.50;83.90;17.90;96790.00;;;;5048855;28;20280;-85
2022/10/02 07:46:36;;;;;;;1.10;1.00;;;17.50;83.80;17.90;96788.00;;;;5050269;28;20745;-85
2022/10/02 07:49:25;;;;;;;2.97;0.90;;;17.50;83.80;18.00;96793.00;;;;5043125;28;20668;-86
2022/10/02 07:52:01;;;;;;;1.77;1.20;;;17.50;84.50;18.00;96785.00;;;;5041389;28;20228;-86
2022/10/02 07:55:06;;;;;;;1.80;1.17;;;17.60;83.80;18.00;96785.00;;;;5048406;28;20196;-86
2022/10/02 07:57:44;;;;;;;2.10;1.00;;;17.50;83.30;18.00;96779.00;;;;5048069;28;20201;-85
2022/10/02 08:00:15;;;;;;;1.73;1.30;;;17.60;83.40;18.00;96772.00;;;;5048351;28;20196;-86
2022/10/02 08:02:51;;;;;;;3.57;1.67;;;17.60;83.50;18.00;96780.00;;;;5048421;28;20250;-87
2022/10/02 08:05:22;;;;;;;1.57;1.30;;;17.60;83.50;18.00;96783.00;;;;5044237;28;20222;-85
2022/10/02 08:07:56;;;;;;;1.40;1.20;;;17.60;83.50;18.00;96787.00;;;;5050425;28;20203;-85
2022/10/02 08:10:32;;;;;;;3.07;1.50;;;17.60;83.40;18.00;96790.00;;;;5049099;28;20196;-85
2022/10/02 08:13:19;;;;;;;2.30;1.30;;;17.60;83.40;18.00;96794.00;;;;5048147;28;20323;-85
2022/10/02 08:15:50;;;;;;;2.33;1.03;;;17.60;83.40;18.10;96790.00;;;;5048601;28;20271;-87
2022/10/02 08:18:27;;;;;;;2.60;1.37;;;17.70;83.50;18.10;96784.00;;;;5052434;28;20628;-87
2022/10/02 08:20:54;;;;;;;2.77;2.10;;;17.70;83.50;18.10;96784.00;;;;5047262;28;20544;-86
2022/10/02 08:23:28;;;;;;;2.87;1.80;;;17.70;83.40;18.10;96782.00;;;;5053754;28;20284;-85
2022/10/02 08:26:06;;;;;;;1.63;1.50;;;17.70;83.30;18.10;96789.00;;;;5045660;28;20239;-86
2022/10/02 08:28:44;;;;;;;1.77;1.47;;;17.70;83.30;18.10;96785.00;;;;5053328;28;20207;-86
2022/10/02 08:31:13;;;;;;;2.53;1.63;;;17.70;83.30;18.10;96794.00;;;;5054170;28;20283;-85
2022/10/02 08:33:42;;;;;;;1.80;1.70;;;17.70;83.40;18.20;96796.00;;;;5055714;28;20200;-85
2022/10/02 08:36:52;;;;;;;4.17;2.20;;;17.70;83.40;18.20;96805.00;;;;5053440;28;20682;-85
2022/10/02 08:40:00;;;;;;;2.53;1.40;;;17.80;83.50;18.20;96802.00;;;;5050116;28;20192;-85
2022/10/02 08:43:37;;;;;;;2.87;1.30;;;17.80;83.50;18.20;96791.00;;;;5053093;28;20201;-86
2022/10/02 08:46:57;;;;;;;2.70;1.73;;;17.80;83.60;18.20;96785.00;;;;5050309;28;20236;-85
2022/10/02 08:50:18;;;;;;;2.57;1.17;;;17.80;83.60;18.20;96779.00;;;;5051339;28;20320;-86
2022/10/02 08:53:37;;;;;;;2.60;1.00;;;17.80;83.50;18.20;96778.00;;;;5051782;28;20212;-85
2022/10/02 08:56:24;;;;;;;1.90;1.20;;;17.80;83.40;18.30;96780.00;;;;5051155;28;20235;-86
2022/10/02 08:59:44;;;;;;;1.67;1.00;;;17.90;83.70;18.30;96772.00;;;;5045129;28;20181;-85
2022/10/02 09:03:08;;;;;;;1.93;1.00;;;17.90;83.80;18.30;96757.00;;;;5045123;28;20280;-86
2022/10/02 09:06:32;;;;;;;2.93;1.10;;;17.90;83.70;18.30;96761.00;;;;5039317;28;20220;-85
2022/10/02 09:09:50;;;;;;;1.77;1.20;;;17.90;84.20;18.30;96761.00;;;;5053216;28;20730;-87
2022/10/02 09:13:25;;;;;;;2.03;1.00;;;17.90;83.20;18.20;96762.00;;;;5049648;28;20211;-86
2022/10/02 09:16:08;;;;;;;1.40;1.30;;;17.90;82.90;18.20;96754.00;;;;5050299;28;20228;-86
2022/10/02 09:18:58;;;;;;;3.37;1.20;;;17.90;83.00;18.30;96759.00;;;;5049583;28;20185;-87
2022/10/02 09:21:55;;;;;;;1.93;0.80;;;17.90;83.10;18.30;96749.00;;;;5048990;28;20228;-86
2022/10/02 09:25:07;;;;;;;1.27;1.00;;;18.00;83.30;18.30;96746.00;;;;5046810;28;20567;-85
2022/10/02 09:28:20;;;;;;;1.00;0.80;;;18.00;83.20;18.40;96736.00;;;;5037785;28;20292;-85
2022/10/02 09:32:01;;;;;;;2.03;1.30;;;18.00;83.40;18.40;96727.00;;;;5050389;28;20203;-85
2022/10/02 09:35:12;;;;;;;1.23;1.03;;;18.00;83.60;18.50;96728.00;;;;4969209;28;20695;-85
2022/10/02 09:38:12;;;;;;;3.83;1.67;;;18.10;83.70;18.50;96720.00;;;;5050611;28;20275;-85
2022/10/02 09:41:51;;;;;;;2.00;1.10;;;18.10;83.40;18.50;96716.00;;;;5050117;28;20208;-85
2022/10/02 09:45:10;;;;;;;2.03;1.00;;;18.10;83.40;18.50;96706.00;;;;5046438;28;20191;-85
2022/10/02 09:48:36;;;;;;;1.40;1.20;;;18.20;83.50;18.60;96705.00;;;;5045751;28;20193;-85
2022/10/02 09:52:03;;;;;;;2.13;1.00;;;18.20;83.60;18.70;96703.00;;;;5046060;28;20262;-85
2022/10/02 09:55:34;;;;;;;1.07;0.97;;;18.30;83.50;18.70;96700.00;;;;5014566;28;20600;-85
2022/10/02 09:58:47;;;;;;;1.93;0.83;;;18.30;83.70;18.80;96696.00;;;;5047436;28;20254;-85
2022/10/02 10:02:23;;;;;;;2.90;1.10;;;18.30;83.50;18.80;96688.00;;;;5046075;28;20205;-85
2022/10/02 10:05:33;;;;;;;0.93;0.83;;;18.30;83.50;18.80;96695.00;;;;5004068;28;20225;-84
2022/10/02 10:08:43;;;;;;;1.70;0.70;;;18.40;83.60;18.80;96685.00;;;;4999602;28;20194;-85
2022/10/02 10:11:43;;;;;;;2.93;0.77;;;18.40;83.80;18.80;96684.00;;;;5051511;28;20192;-84
2022/10/02 10:15:00;;;;;;;1.03;0.97;;;18.40;83.50;18.80;96678.00;;;;5035913;28;20205;-85
2022/10/02 10:18:25;;;;;;;0.83;0.70;;;18.40;83.50;18.80;96686.00;;;;5046844;28;20308;-84
2022/10/02 10:21:51;;;;;;;2.00;0.70;;;18.40;83.40;18.80;96672.00;;;;5043759;28;20236;-84
2022/10/02 10:25:09;;;;;;;1.17;0.70;;;18.40;83.50;18.80;96669.00;;;;4937386;29;20214;-84
2022/10/02 10:29:03;;;;;;;0.90;0.90;;;18.40;83.90;18.90;96646.00;;;;5039947;28;20236;-84
2022/10/02 10:32:25;;;;;;;1.07;0.90;;;18.40;83.80;19.00;96638.00;;;;4995951;28;20203;-86
2022/10/02 10:35:45;;;;;;;1.90;0.90;;;18.50;84.90;19.10;96653.00;;;;4987208;28;20846;-84
2022/10/02 10:38:44;;;;;;;2.23;1.07;;;18.50;84.40;19.10;96636.00;;;;5048471;28;20281;-84
2022/10/02 10:42:18;;;;;;;2.77;1.20;;;18.60;84.40;19.20;96645.00;;;;5055362;28;20298;-85
2022/10/02 10:45:35;;;;;;;1.10;1.00;;;18.60;84.50;19.30;96638.00;;;;5035927;28;20274;-84
2022/10/02 10:49:14;;;;;;;1.27;1.00;;;18.70;83.80;19.30;96637.00;;;;5051264;28;20209;-85
2022/10/02 10:51:51;;;;;;;1.67;1.20;;;18.80;84.10;19.40;96641.00;;;;4968937;28;20716;-86
2022/10/02 10:55:12;;;;;;;2.53;1.30;;;18.90;84.20;19.40;96648.00;;;;5036944;28;20208;-86
2022/10/02 10:58:13;;;;;;;1.77;1.30;;;18.90;83.80;19.40;96646.00;;;;5049955;28;20224;-85
2022/10/02 11:01:01;;;;;;;1.20;1.10;;;18.90;84.10;19.50;96634.00;;;;5038678;28;20817;-84
2022/10/02 11:04:07;;;;;;;2.50;1.17;;;19.00;84.20;19.60;96636.00;;;;5054561;28;20243;-84
2022/10/02 11:07:33;;;;;;;7.43;1.30;;;19.00;84.20;19.60;96644.00;;;;5053251;28;20288;-84
2022/10/02 11:10:36;;;;;;;1.27;1.00;;;19.10;84.30;19.70;96625.00;;;;5013990;28;20204;-84
2022/10/02 11:13:42;;;;;;;2.07;1.27;;;19.20;84.40;19.80;96630.00;;;;5049541;28;20208;-85
2022/10/02 11:16:53;;;;;;;2.20;1.23;;;19.20;84.50;19.90;96621.00;;;;5046948;28;20260;-84
2022/10/02 11:19:58;;;;;;;1.40;1.17;;;19.30;84.30;20.00;96615.00;;;;5046351;28;20275;-86
2022/10/02 11:23:07;;;;;;;1.03;0.97;;;19.40;84.50;20.10;96613.00;;;;5050141;28;20568;-84
2022/10/02 11:26:01;;;;;;;1.00;0.93;;;19.40;84.50;20.20;96601.00;;;;4989664;28;20229;-84
2022/10/02 11:29:33;;;;;;;1.10;1.00;;;19.50;84.50;20.30;96593.00;;;;5046491;28;20197;-85
2022/10/02 11:32:40;;;;;;;1.50;1.10;;;19.60;84.60;20.40;96580.00;;;;5006764;28;20661;-85
2022/10/02 11:35:47;;;;;;;1.40;1.00;;;19.70;84.50;20.50;96599.00;;;;5011090;28;20688;-85
2022/10/02 11:38:54;;;;;;;2.03;1.50;;;19.80;84.60;20.60;96587.00;;;;4998425;28;20680;-86
2022/10/02 11:41:43;;;;;;;1.50;1.10;;;19.90;84.80;20.70;96576.00;;;;5035801;28;20189;-86
2022/10/02 11:44:37;;;;;;;2.20;1.10;;;20.00;84.50;20.70;96580.00;;;;5080054;23;20280;-83
2022/10/02 11:47:45;;;;;;;1.83;1.37;;;20.00;84.10;20.80;96576.00;;;;5093925;28;20252;-84
2022/10/02 11:50:57;;;;;;;1.87;1.10;;;20.10;83.70;20.80;96572.00;;;;5092364;28;20284;-86
2022/10/02 11:53:48;;;;;;;1.63;1.33;;;20.20;83.60;20.90;96561.00;;;;5032772;28;20192;-84
2022/10/02 11:57:07;;;;;;;2.20;1.40;;;20.20;83.70;20.90;96564.00;;;;5063776;28;20887;-87
2022/10/02 12:00:03;;;;;;;1.97;1.10;;;20.30;83.60;21.00;96570.00;;;;5046760;28;20208;-85
2022/10/02 12:02:38;;;;;;;1.30;1.20;;;20.30;83.40;21.00;96570.00;;;;5070836;28;20242;-85
2022/10/02 12:05:30;;;;;;;1.97;1.20;;;20.40;83.30;21.00;96566.00;;;;5071888;28;20203;-88
2022/10/02 12:08:13;;;;;;;1.00;1.00;;;20.40;82.90;21.00;96560.00;;;;5069657;28;20196;-88
2022/10/02 12:10:53;;;;;;;5.73;1.40;;;20.40;82.90;21.00;96554.00;;;;5073118;28;20197;-85
2022/10/02 12:13:51;;;;;;;1.97;1.10;;;20.50;82.50;21.00;96561.00;;;;5068966;28;20599;-84
2022/10/02 12:16:45;;;;;;;1.67;1.30;;;20.50;82.20;20.90;96554.00;;;;5074092;28;20251;-84
2022/10/02 12:28:54;;;;;;;1.47;0.93;;;20.30;80.80;20.60;96608.00;;;;5070202;28;20199;-83
2022/10/02 12:31:50;;;;;;;1.67;1.00;;;20.20;80.70;20.40;96562.00;;;;5065733;28;20225;-87
2022/10/02 12:34:47;;;;;;;1.50;0.80;;;20.10;80.70;20.20;96587.00;;;;5069115;28;20192;-86
2022/10/02 12:37:30;;;;;;;1.50;0.80;;;20.00;79.80;20.10;96583.00;;;;5068495;28;20596;-87
2022/10/02 12:40:24;;;;;;;0.50;0.50;;;19.90;79.50;19.80;96575.00;;;;5069980;28;20199;-85